createdAt,value
2018-03-17T00:00:55.027Z,99.90
2018-03-17T00:01:57.526Z,99.90
2018-03-17T00:03:00.799Z,99.90
2018-03-17T00:04:03.275Z,99.90
2018-03-17T00:05:06.547Z,99.90
2018-03-17T00:06:09.029Z,99.90
2018-03-17T00:07:12.297Z,99.90
2018-03-17T00:08:15.543Z,99.90
2018-03-17T00:09:18.008Z,99.90
2018-03-17T00:10:20.544Z,99.90
2018-03-17T00:11:23.020Z,99.90
2018-03-17T00:12:25.519Z,99.90
2018-03-17T00:13:27.995Z,99.90
2018-03-17T00:14:30.458Z,99.90
2018-03-17T00:15:32.934Z,99.90
2018-03-17T00:16:35.488Z,99.90
2018-03-17T00:17:38.067Z,99.90
2018-03-17T00:18:40.531Z,99.90
2018-03-17T00:19:43.012Z,99.90
2018-03-17T00:20:46.276Z,99.90
2018-03-17T00:21:48.750Z,99.90
2018-03-17T00:22:52.011Z,99.90
2018-03-17T00:23:54.488Z,99.90
2018-03-17T00:24:56.958Z,99.90
2018-03-17T00:26:00.194Z,99.90
2018-03-17T00:27:02.666Z,99.90
2018-03-17T00:28:05.165Z,99.90
2018-03-17T00:29:07.635Z,99.90
2018-03-17T00:30:10.875Z,99.90
2018-03-17T00:31:13.346Z,99.90
2018-03-17T00:32:15.902Z,99.90
2018-03-17T00:33:18.394Z,99.90
2018-03-17T00:34:20.879Z,99.90
2018-03-17T00:35:24.119Z,99.90
2018-03-17T00:36:26.604Z,99.90
2018-03-17T00:37:29.077Z,99.90
2018-03-17T00:38:32.355Z,99.90
2018-03-17T00:39:34.835Z,99.90
2018-03-17T00:40:37.305Z,99.90
2018-03-17T00:41:40.575Z,99.90
2018-03-17T00:42:43.049Z,99.90
2018-03-17T00:43:46.315Z,99.90
2018-03-17T00:44:48.883Z,99.90
2018-03-17T00:45:51.361Z,99.90
2018-03-17T00:46:54.672Z,99.90
2018-03-17T00:47:57.166Z,99.90
2018-03-17T00:48:59.664Z,99.90
2018-03-17T00:50:02.145Z,99.90
2018-03-17T00:51:05.392Z,99.90
2018-03-17T00:52:07.993Z,99.90
2018-03-17T00:53:11.245Z,99.90
2018-03-17T00:54:13.734Z,99.90
2018-03-17T00:55:16.345Z,99.90
2018-03-17T00:56:18.698Z,99.90
2018-03-17T00:57:21.170Z,99.90
2018-03-17T00:58:23.643Z,99.90
2018-03-17T00:59:26.142Z,99.90
2018-03-17T01:00:28.613Z,99.90
2018-03-17T01:01:31.095Z,99.90
2018-03-17T01:02:34.344Z,99.90
2018-03-17T01:03:36.822Z,99.90
2018-03-17T01:04:39.326Z,99.90
2018-03-17T01:05:41.809Z,99.90
2018-03-17T01:06:44.291Z,99.90
2018-03-17T01:07:46.762Z,99.90
2018-03-17T01:08:49.290Z,99.90
2018-03-17T01:09:51.748Z,99.90
2018-03-17T01:10:54.223Z,99.90
2018-03-17T01:11:56.698Z,99.90
2018-03-17T01:12:59.171Z,99.90
2018-03-17T01:14:01.648Z,99.90
2018-03-17T01:15:04.151Z,99.90
2018-03-17T01:16:07.387Z,99.90
2018-03-17T01:17:09.863Z,99.90
2018-03-17T01:18:12.334Z,99.90
2018-03-17T01:19:14.814Z,99.90
2018-03-17T01:20:17.312Z,99.90
2018-03-17T01:21:19.787Z,99.90
2018-03-17T01:22:22.276Z,99.90
2018-03-17T01:23:24.751Z,99.90
2018-03-17T01:24:27.223Z,99.90
2018-03-17T01:25:29.719Z,99.90
2018-03-17T01:26:32.962Z,99.90
2018-03-17T01:27:35.431Z,99.90
2018-03-17T01:28:37.911Z,99.90
2018-03-17T01:29:40.495Z,99.90
2018-03-17T01:30:43.762Z,99.90
2018-03-17T01:31:46.245Z,99.90
2018-03-17T01:32:49.490Z,99.90
2018-03-17T01:33:51.966Z,99.90
2018-03-17T01:34:54.446Z,99.90
2018-03-17T01:35:57.731Z,99.90
2018-03-17T01:37:00.982Z,99.90
2018-03-17T01:38:03.455Z,99.90
2018-03-17T01:39:05.930Z,99.90
2018-03-17T01:40:08.444Z,99.90
2018-03-17T01:41:11.674Z,99.90
2018-03-17T01:42:14.142Z,99.90
2018-03-17T01:43:16.614Z,99.80
2018-03-17T01:44:19.897Z,99.70
2018-03-17T01:45:22.366Z,99.70
2018-03-17T01:46:25.635Z,98.40
2018-03-17T01:47:28.106Z,98.10
2018-03-17T01:48:30.594Z,98.70
2018-03-17T01:49:33.831Z,98.00
2018-03-17T01:50:36.311Z,98.00
2018-03-17T01:51:38.816Z,98.30
2018-03-17T01:52:41.304Z,98.60
2018-03-17T01:53:43.775Z,99.10
2018-03-17T01:54:46.250Z,99.30
2018-03-17T01:55:48.723Z,99.10
2018-03-17T01:56:51.311Z,99.10
2018-03-17T01:57:53.778Z,99.20
2018-03-17T01:58:56.263Z,98.90
2018-03-17T01:59:58.740Z,98.80
2018-03-17T02:01:01.262Z,99.10
2018-03-17T02:02:03.762Z,98.30
2018-03-17T02:03:06.263Z,98.20
2018-03-17T02:04:08.739Z,97.70
2018-03-17T02:05:11.214Z,97.90
2018-03-17T02:06:13.687Z,98.30
2018-03-17T02:07:16.182Z,98.30
2018-03-17T02:08:18.735Z,98.20
2018-03-17T02:09:21.978Z,97.00
2018-03-17T02:10:24.455Z,97.00
2018-03-17T02:11:26.927Z,97.40
2018-03-17T02:12:29.423Z,97.90
2018-03-17T02:13:32.674Z,98.40
2018-03-17T02:14:35.153Z,98.50
2018-03-17T02:15:37.637Z,98.70
2018-03-17T02:16:40.108Z,98.70
2018-03-17T02:17:42.609Z,98.80
2018-03-17T02:18:45.091Z,98.80
2018-03-17T02:19:47.562Z,98.80
2018-03-17T02:20:50.054Z,98.80
2018-03-17T02:21:53.287Z,98.80
2018-03-17T02:22:55.789Z,98.70
2018-03-17T02:23:58.272Z,97.00
2018-03-17T02:25:01.530Z,95.60
2018-03-17T02:26:05.516Z,95.50
2018-03-17T02:27:07.999Z,95.50
2018-03-17T02:28:10.495Z,96.10
2018-03-17T02:29:12.971Z,96.50
2018-03-17T02:30:15.444Z,96.30
2018-03-17T02:31:17.920Z,96.20
2018-03-17T02:32:20.390Z,96.50
2018-03-17T02:33:22.890Z,96.40
2018-03-17T02:34:26.127Z,96.40
2018-03-17T02:35:28.603Z,96.30
2018-03-17T02:36:31.078Z,96.80
2018-03-17T02:37:33.555Z,97.10
2018-03-17T02:38:36.119Z,96.80
2018-03-17T02:39:38.600Z,97.00
2018-03-17T02:40:41.847Z,97.50
2018-03-17T02:41:44.473Z,97.40
2018-03-17T02:42:46.950Z,97.90
2018-03-17T02:43:49.462Z,98.40
2018-03-17T02:44:51.930Z,97.80
2018-03-17T02:45:54.504Z,97.80
2018-03-17T02:46:56.978Z,97.80
2018-03-17T02:48:00.216Z,98.20
2018-03-17T02:49:02.717Z,98.20
2018-03-17T02:50:05.960Z,98.40
2018-03-17T02:51:08.437Z,98.40
2018-03-17T02:52:10.910Z,98.60
2018-03-17T02:53:13.386Z,98.60
2018-03-17T02:54:15.884Z,98.50
2018-03-17T02:55:18.362Z,98.40
2018-03-17T02:56:20.852Z,98.80
2018-03-17T02:57:23.321Z,99.30
2018-03-17T02:58:25.800Z,99.60
2018-03-17T02:59:29.094Z,99.90
2018-03-17T03:00:33.085Z,99.90
2018-03-17T03:01:36.319Z,99.90
2018-03-17T03:02:38.803Z,99.90
2018-03-17T03:03:41.279Z,99.50
2018-03-17T03:04:43.770Z,99.90
2018-03-17T03:05:46.272Z,99.90
2018-03-17T03:06:48.742Z,99.90
2018-03-17T03:07:51.239Z,99.90
2018-03-17T03:08:53.702Z,99.90
2018-03-17T03:09:56.194Z,99.90
2018-03-17T03:10:58.678Z,99.90
2018-03-17T03:12:01.919Z,99.90
2018-03-17T03:13:04.398Z,99.90
2018-03-17T03:14:06.866Z,99.90
2018-03-17T03:15:09.369Z,99.90
2018-03-17T03:16:11.836Z,99.90
2018-03-17T03:17:14.306Z,99.90
2018-03-17T03:18:16.787Z,99.90
2018-03-17T03:19:19.259Z,99.90
2018-03-17T03:20:21.762Z,99.90
2018-03-17T03:21:24.242Z,99.90
2018-03-17T03:22:27.479Z,99.90
2018-03-17T03:23:29.961Z,99.90
2018-03-17T03:24:32.447Z,99.90
2018-03-17T03:25:35.723Z,99.90
2018-03-17T03:26:38.204Z,99.90
2018-03-17T03:27:41.449Z,99.90
2018-03-17T03:28:43.923Z,99.90
2018-03-17T03:29:46.404Z,99.90
2018-03-17T03:30:49.687Z,99.90
2018-03-17T03:31:52.926Z,99.90
2018-03-17T03:32:55.413Z,99.90
2018-03-17T03:33:57.888Z,99.90
2018-03-17T03:35:00.358Z,99.90
2018-03-17T03:36:02.864Z,99.90
2018-03-17T03:37:05.344Z,99.90
2018-03-17T03:38:07.825Z,99.90
2018-03-17T03:39:10.295Z,99.90
2018-03-17T03:40:12.770Z,99.90
2018-03-17T03:41:15.287Z,99.90
2018-03-17T03:42:17.762Z,99.90
2018-03-17T03:43:20.280Z,99.90
2018-03-17T03:44:23.522Z,99.90
2018-03-17T03:45:25.998Z,99.90
2018-03-17T03:46:28.490Z,99.90
2018-03-17T03:47:31.772Z,99.90
2018-03-17T03:48:35.011Z,99.90
2018-03-17T03:49:37.478Z,99.90
2018-03-17T03:50:39.950Z,99.90
2018-03-17T03:51:42.447Z,99.90
2018-03-17T03:52:44.914Z,99.90
2018-03-17T03:53:48.162Z,99.90
2018-03-17T03:54:50.635Z,99.90
2018-03-17T03:55:53.113Z,99.90
2018-03-17T03:56:55.618Z,99.90
2018-03-17T03:57:58.088Z,99.90
2018-03-17T03:59:00.567Z,99.90
2018-03-17T04:00:03.042Z,99.90
2018-03-17T04:01:05.525Z,99.90
2018-03-17T04:02:08.023Z,99.90
2018-03-17T04:03:11.271Z,99.90
2018-03-17T04:04:13.750Z,99.90
2018-03-17T04:05:16.258Z,99.90
2018-03-17T04:06:19.487Z,99.90
2018-03-17T04:07:22.015Z,99.90
2018-03-17T04:08:24.491Z,99.90
2018-03-17T04:09:26.968Z,99.90
2018-03-17T04:10:29.438Z,99.90
2018-03-17T04:11:31.918Z,99.90
2018-03-17T04:12:34.414Z,99.90
2018-03-17T04:13:37.662Z,99.90
2018-03-17T04:14:40.181Z,99.90
2018-03-17T04:15:42.650Z,99.90
2018-03-17T04:16:45.126Z,99.90
2018-03-17T04:17:47.616Z,99.90
2018-03-17T04:18:50.105Z,99.90
2018-03-17T04:19:53.342Z,99.90
2018-03-17T04:20:55.815Z,99.90
2018-03-17T04:21:58.295Z,99.90
2018-03-17T04:23:00.796Z,99.90
2018-03-17T04:24:04.040Z,99.90
2018-03-17T04:25:06.519Z,99.90
2018-03-17T04:26:09.087Z,99.90
2018-03-17T04:27:11.659Z,99.90
2018-03-17T04:28:14.166Z,99.90
2018-03-17T04:29:16.645Z,99.90
2018-03-17T04:30:19.125Z,99.90
2018-03-17T04:31:21.592Z,99.90
2018-03-17T04:32:24.090Z,99.90
2018-03-17T04:33:27.358Z,99.90
2018-03-17T04:34:31.334Z,99.90
2018-03-17T04:35:33.810Z,99.90
2018-03-17T04:36:36.286Z,99.90
2018-03-17T04:37:39.536Z,99.90
2018-03-17T04:38:42.041Z,99.90
2018-03-17T04:39:44.511Z,99.90
2018-03-17T04:40:47.750Z,99.90
2018-03-17T04:41:50.233Z,99.90
2018-03-17T04:42:52.751Z,99.90
2018-03-17T04:43:55.276Z,99.90
2018-03-17T04:44:57.769Z,99.90
2018-03-17T04:46:01.008Z,99.90
2018-03-17T04:47:03.478Z,99.90
2018-03-17T04:48:05.954Z,99.90
2018-03-17T04:49:08.467Z,99.90
2018-03-17T04:50:10.993Z,99.90
2018-03-17T04:51:14.244Z,99.90
2018-03-17T04:52:16.725Z,99.90
2018-03-17T04:53:19.202Z,99.90
2018-03-17T04:54:21.705Z,99.90
2018-03-17T04:55:24.188Z,99.90
2018-03-17T04:56:26.664Z,99.90
2018-03-17T04:57:29.135Z,99.90
2018-03-17T04:58:31.614Z,99.90
2018-03-17T04:59:34.110Z,99.90
2018-03-17T05:00:36.584Z,99.90
2018-03-17T05:01:39.068Z,99.90
2018-03-17T05:02:41.550Z,99.90
2018-03-17T05:03:44.019Z,99.90
2018-03-17T05:04:46.630Z,99.90
2018-03-17T05:05:49.884Z,99.90
2018-03-17T05:06:52.367Z,99.90
2018-03-17T05:07:55.623Z,99.90
2018-03-17T05:08:58.110Z,99.90
2018-03-17T05:10:00.635Z,99.90
2018-03-17T05:11:03.119Z,99.90
2018-03-17T05:12:05.610Z,99.90
2018-03-17T05:13:08.853Z,99.90
2018-03-17T05:14:11.330Z,99.90
2018-03-17T05:15:13.818Z,99.90
2018-03-17T05:16:17.066Z,99.90
2018-03-17T05:17:19.538Z,99.90
2018-03-17T05:18:22.028Z,99.90
2018-03-17T05:19:24.507Z,99.90
2018-03-17T05:20:27.766Z,99.80
2018-03-17T05:21:30.260Z,99.80
2018-03-17T05:22:33.507Z,99.90
2018-03-17T05:23:35.983Z,99.90
2018-03-17T05:24:38.476Z,99.40
2018-03-17T05:25:40.982Z,99.30
2018-03-17T05:26:43.451Z,99.30
2018-03-17T05:27:45.927Z,99.40
2018-03-17T05:28:48.391Z,99.30
2018-03-17T05:29:50.865Z,98.80
2018-03-17T05:30:53.354Z,98.10
2018-03-17T05:31:56.614Z,98.10
2018-03-17T05:32:59.091Z,98.10
2018-03-17T05:34:02.371Z,97.30
2018-03-17T05:35:04.856Z,97.20
2018-03-17T05:36:08.127Z,97.50
2018-03-17T05:37:11.358Z,97.80
2018-03-17T05:38:13.834Z,97.70
2018-03-17T05:39:16.313Z,97.60
2018-03-17T05:40:18.798Z,97.50
2018-03-17T05:41:22.075Z,97.10
2018-03-17T05:42:24.579Z,97.10
2018-03-17T05:43:27.068Z,97.30
2018-03-17T05:44:29.580Z,97.50
2018-03-17T05:45:32.832Z,97.60
2018-03-17T05:46:35.348Z,97.60
2018-03-17T05:47:37.816Z,97.10
2018-03-17T05:48:40.302Z,96.90
2018-03-17T05:49:42.834Z,96.80
2018-03-17T05:50:46.081Z,95.20
2018-03-17T05:51:48.547Z,95.20
2018-03-17T05:52:51.024Z,95.10
2018-03-17T05:53:54.279Z,93.90
2018-03-17T05:54:56.778Z,93.80
2018-03-17T05:56:00.024Z,93.70
2018-03-17T05:57:02.500Z,93.70
2018-03-17T05:58:04.970Z,94.90
2018-03-17T05:59:07.446Z,95.20
2018-03-17T06:00:09.958Z,95.10
2018-03-17T06:01:12.445Z,94.90
2018-03-17T06:02:14.944Z,94.70
2018-03-17T06:03:18.195Z,92.70
2018-03-17T06:04:20.706Z,92.50
2018-03-17T06:05:23.980Z,92.40
2018-03-17T06:06:27.240Z,92.60
2018-03-17T06:07:29.730Z,92.60
2018-03-17T06:08:32.985Z,93.10
2018-03-17T06:09:35.471Z,93.10
2018-03-17T06:10:37.973Z,91.80
2018-03-17T06:11:40.446Z,92.60
2018-03-17T06:12:42.929Z,93.20
2018-03-17T06:13:45.410Z,93.50
2018-03-17T06:14:47.890Z,93.40
2018-03-17T06:15:50.678Z,93.80
2018-03-17T06:16:53.907Z,93.90
2018-03-17T06:17:56.370Z,93.90
2018-03-17T06:18:58.875Z,93.40
2018-03-17T06:20:01.351Z,92.90
2018-03-17T06:21:04.615Z,93.30
2018-03-17T06:22:07.088Z,93.30
2018-03-17T06:23:09.561Z,93.80
2018-03-17T06:24:12.811Z,92.80
2018-03-17T06:25:15.294Z,92.70
2018-03-17T06:26:17.830Z,92.70
2018-03-17T06:27:20.300Z,93.20
2018-03-17T06:28:22.780Z,93.20
2018-03-17T06:29:25.256Z,92.10
2018-03-17T06:30:27.748Z,91.60
2018-03-17T06:31:31.306Z,92.50
2018-03-17T06:32:33.787Z,92.50
2018-03-17T06:33:37.026Z,92.90
2018-03-17T06:34:39.498Z,92.90
2018-03-17T06:35:41.987Z,92.90
2018-03-17T06:36:44.503Z,93.50
2018-03-17T06:37:46.996Z,93.40
2018-03-17T06:38:49.459Z,92.80
2018-03-17T06:39:51.958Z,93.00
2018-03-17T06:40:55.202Z,93.00
2018-03-17T06:41:57.698Z,93.00
2018-03-17T06:43:00.186Z,93.70
2018-03-17T06:44:03.435Z,94.80
2018-03-17T06:45:05.919Z,94.80
2018-03-17T06:46:09.215Z,95.60
2018-03-17T06:47:11.722Z,95.60
2018-03-17T06:48:14.202Z,96.10
2018-03-17T06:49:16.752Z,96.20
2018-03-17T06:50:19.945Z,97.50
2018-03-17T06:51:22.419Z,97.50
2018-03-17T06:52:25.235Z,98.30
2018-03-17T06:53:27.710Z,98.90
2018-03-17T06:54:30.212Z,99.30
2018-03-17T06:55:32.686Z,99.10
2018-03-17T06:56:35.187Z,98.90
2018-03-17T06:57:37.727Z,99.70
2018-03-17T06:58:40.557Z,99.90
2018-03-17T06:59:43.043Z,99.90
2018-03-17T07:00:45.530Z,99.90
2018-03-17T07:01:48.004Z,99.90
2018-03-17T07:02:51.285Z,99.90
2018-03-17T07:03:53.759Z,99.90
2018-03-17T07:04:57.028Z,99.90
2018-03-17T07:05:59.509Z,99.90
2018-03-17T07:07:03.227Z,99.90
2018-03-17T07:08:05.743Z,99.90
2018-03-17T07:09:08.234Z,99.90
2018-03-17T07:10:11.523Z,99.90
2018-03-17T07:11:14.776Z,99.90
2018-03-17T07:12:17.311Z,99.90
2018-03-17T07:13:19.783Z,99.90
2018-03-17T07:14:22.258Z,99.90
2018-03-17T07:15:24.851Z,99.90
2018-03-17T07:16:28.099Z,99.90
2018-03-17T07:17:30.571Z,99.90
2018-03-17T07:18:33.075Z,99.90
2018-03-17T07:19:36.310Z,99.90
2018-03-17T07:20:38.783Z,99.90
2018-03-17T07:21:41.279Z,99.90
2018-03-17T07:22:44.531Z,98.70
2018-03-17T07:23:47.020Z,98.70
2018-03-17T07:24:49.497Z,99.10
2018-03-17T07:25:52.770Z,99.70
2018-03-17T07:26:55.244Z,99.70
2018-03-17T07:27:58.487Z,98.40
2018-03-17T07:29:00.975Z,98.30
2018-03-17T07:30:04.285Z,97.60
2018-03-17T07:31:06.772Z,97.50
2018-03-17T07:32:09.259Z,97.30
2018-03-17T07:33:11.739Z,97.00
2018-03-17T07:34:14.246Z,97.00
2018-03-17T07:35:16.731Z,97.10
2018-03-17T07:36:19.214Z,96.70
2018-03-17T07:37:22.407Z,95.90
2018-03-17T07:38:24.888Z,96.50
2018-03-17T07:39:27.697Z,96.20
2018-03-17T07:40:30.176Z,94.90
2018-03-17T07:41:32.651Z,94.00
2018-03-17T07:42:35.135Z,92.00
2018-03-17T07:43:37.607Z,92.00
2018-03-17T07:44:40.101Z,92.70
2018-03-17T07:45:43.363Z,93.80
2018-03-17T07:46:45.855Z,93.70
2018-03-17T07:47:49.139Z,94.20
2018-03-17T07:48:52.379Z,94.50
2018-03-17T07:49:54.891Z,94.50
2018-03-17T07:50:58.174Z,94.10
2018-03-17T07:52:01.435Z,92.60
2018-03-17T07:53:03.942Z,92.60
2018-03-17T07:54:06.447Z,91.80
2018-03-17T07:55:08.932Z,92.70
2018-03-17T07:56:11.412Z,92.50
2018-03-17T07:57:14.661Z,84.70
2018-03-17T07:58:17.136Z,84.70
2018-03-17T07:59:19.600Z,84.90
2018-03-17T08:00:22.090Z,84.10
2018-03-17T08:01:25.330Z,83.80
2018-03-17T08:02:27.804Z,83.70
2018-03-17T08:03:30.289Z,82.80
2018-03-17T08:04:33.542Z,82.60
2018-03-17T08:05:36.045Z,82.60
2018-03-17T08:06:39.294Z,82.20
2018-03-17T08:07:41.778Z,82.30
2018-03-17T08:08:44.248Z,84.40
2018-03-17T08:09:47.499Z,82.40
2018-03-17T08:10:50.290Z,82.40
2018-03-17T08:11:53.629Z,83.30
2018-03-17T08:12:56.115Z,82.80
2018-03-17T08:13:58.602Z,83.80
2018-03-17T08:15:01.080Z,83.40
2018-03-17T08:16:03.587Z,81.10
2018-03-17T08:17:06.072Z,80.70
2018-03-17T08:18:08.552Z,81.40
2018-03-17T08:19:11.030Z,79.40
2018-03-17T08:20:14.271Z,80.40
2018-03-17T08:21:16.763Z,80.40
2018-03-17T08:22:19.260Z,79.40
2018-03-17T08:23:22.508Z,76.70
2018-03-17T08:24:24.983Z,76.60
2018-03-17T08:25:27.463Z,73.60
2018-03-17T08:26:30.723Z,73.80
2018-03-17T08:27:33.232Z,73.80
2018-03-17T08:28:36.452Z,77.40
2018-03-17T08:29:38.925Z,77.40
2018-03-17T08:30:41.406Z,78.90
2018-03-17T08:31:43.912Z,78.60
2018-03-17T08:32:46.397Z,78.20
2018-03-17T08:33:48.876Z,74.10
2018-03-17T08:34:51.343Z,71.50
2018-03-17T08:35:53.814Z,72.70
2018-03-17T08:36:56.302Z,74.20
2018-03-17T08:37:58.804Z,72.80
2018-03-17T08:39:01.279Z,73.60
2018-03-17T08:40:03.758Z,74.70
2018-03-17T08:41:06.243Z,76.00
2018-03-17T08:42:08.765Z,75.20
2018-03-17T08:43:11.286Z,76.20
2018-03-17T08:44:13.755Z,76.90
2018-03-17T08:45:16.233Z,76.50
2018-03-17T08:46:19.472Z,75.90
2018-03-17T08:47:22.323Z,75.80
2018-03-17T08:48:24.806Z,73.30
2018-03-17T08:49:27.294Z,72.40
2018-03-17T08:50:29.763Z,70.90
2018-03-17T08:51:32.235Z,73.10
2018-03-17T08:52:34.726Z,75.60
2018-03-17T08:53:37.967Z,75.10
2018-03-17T08:54:40.451Z,75.10
2018-03-17T08:55:43.712Z,71.80
2018-03-17T08:56:46.203Z,71.80
2018-03-17T08:57:49.467Z,70.60
2018-03-17T08:58:52.016Z,70.40
2018-03-17T08:59:55.213Z,72.40
2018-03-17T09:00:57.692Z,72.30
2018-03-17T09:02:00.179Z,71.40
2018-03-17T09:03:03.443Z,73.60
2018-03-17T09:04:06.687Z,74.10
2018-03-17T09:05:09.190Z,73.80
2018-03-17T09:06:11.654Z,71.10
2018-03-17T09:07:14.133Z,70.30
2018-03-17T09:08:17.395Z,72.40
2018-03-17T09:09:19.880Z,72.30
2018-03-17T09:10:23.130Z,70.50
2018-03-17T09:11:25.600Z,70.40
2018-03-17T09:12:28.070Z,69.90
2018-03-17T09:13:30.563Z,71.40
2018-03-17T09:14:33.811Z,69.40
2018-03-17T09:15:36.295Z,69.40
2018-03-17T09:16:39.531Z,70.60
2018-03-17T09:17:42.034Z,70.50
2018-03-17T09:18:44.539Z,70.00
2018-03-17T09:19:47.023Z,70.70
2018-03-17T09:20:49.503Z,71.20
2018-03-17T09:21:51.983Z,69.70
2018-03-17T09:22:54.475Z,68.40
2018-03-17T09:23:57.731Z,66.50
2018-03-17T09:25:00.212Z,66.50
2018-03-17T09:26:02.687Z,67.50
2018-03-17T09:27:05.955Z,66.40
2018-03-17T09:28:08.425Z,66.40
2018-03-17T09:29:12.015Z,67.90
2018-03-17T09:30:14.505Z,67.70
2018-03-17T09:31:16.972Z,67.20
2018-03-17T09:32:19.443Z,68.50
2018-03-17T09:33:21.910Z,63.10
2018-03-17T09:34:24.399Z,64.20
2018-03-17T09:35:26.875Z,66.80
2018-03-17T09:36:29.351Z,66.00
2018-03-17T09:37:31.834Z,65.80
2018-03-17T09:38:35.067Z,68.70
2018-03-17T09:39:37.562Z,68.60
2018-03-17T09:40:40.043Z,70.10
2018-03-17T09:41:43.278Z,68.70
2018-03-17T09:42:45.754Z,68.00
2018-03-17T09:43:48.229Z,69.30
2018-03-17T09:44:51.330Z,66.50
2018-03-17T09:45:53.804Z,67.10
2018-03-17T09:46:56.275Z,68.70
2018-03-17T09:47:59.508Z,69.40
2018-03-17T09:49:02.002Z,69.40
2018-03-17T09:50:04.490Z,69.70
2018-03-17T09:51:07.739Z,70.70
2018-03-17T09:52:10.257Z,70.80
2018-03-17T09:53:13.471Z,68.10
2018-03-17T09:54:15.949Z,68.00
2018-03-17T09:55:18.446Z,68.30
2018-03-17T09:56:21.696Z,68.00
2018-03-17T09:57:24.176Z,67.40
2018-03-17T09:58:26.652Z,68.60
2018-03-17T09:59:29.914Z,66.90
2018-03-17T10:00:32.403Z,66.90
2018-03-17T10:01:35.636Z,67.90
2018-03-17T10:02:38.109Z,67.80
2018-03-17T10:03:40.591Z,66.30
2018-03-17T10:04:43.113Z,66.40
2018-03-17T10:05:45.611Z,66.80
2018-03-17T10:06:48.112Z,65.40
2018-03-17T10:07:51.388Z,63.80
2018-03-17T10:08:54.639Z,62.20
2018-03-17T10:09:57.119Z,62.10
2018-03-17T10:10:59.606Z,63.80
2018-03-17T10:12:02.851Z,65.90
2018-03-17T10:13:05.314Z,65.90
2018-03-17T10:14:07.795Z,66.20
2018-03-17T10:15:11.043Z,62.90
2018-03-17T10:16:13.549Z,62.80
2018-03-17T10:17:16.845Z,62.90
2018-03-17T10:18:20.099Z,63.70
2018-03-17T10:19:22.586Z,63.70
2018-03-17T10:20:25.836Z,62.50
2018-03-17T10:21:28.327Z,62.50
2018-03-17T10:22:31.929Z,64.50
2018-03-17T10:23:35.185Z,66.20
2018-03-17T10:24:37.664Z,66.10
2018-03-17T10:25:40.216Z,67.30
2018-03-17T10:26:42.737Z,66.10
2018-03-17T10:27:45.219Z,66.00
2018-03-17T10:28:47.706Z,63.40
2018-03-17T10:29:50.183Z,60.80
2018-03-17T10:30:54.169Z,61.70
2018-03-17T10:31:56.669Z,61.70
2018-03-17T10:32:59.918Z,62.10
2018-03-17T10:34:02.420Z,61.90
2018-03-17T10:35:04.869Z,60.70
2018-03-17T10:36:07.339Z,61.70
2018-03-17T10:37:10.607Z,61.50
2018-03-17T10:38:13.092Z,61.50
2018-03-17T10:39:16.326Z,60.60
2018-03-17T10:40:18.799Z,60.50
2018-03-17T10:41:21.279Z,60.00
2018-03-17T10:42:23.758Z,60.40
2018-03-17T10:43:27.052Z,62.40
2018-03-17T10:44:30.296Z,63.00
2018-03-17T10:45:32.775Z,63.00
2018-03-17T10:46:35.260Z,62.70
2018-03-17T10:47:38.520Z,60.70
2018-03-17T10:48:41.003Z,60.70
2018-03-17T10:49:44.287Z,60.90
2018-03-17T10:50:46.738Z,60.90
2018-03-17T10:51:49.289Z,59.60
2018-03-17T10:52:52.086Z,60.60
2018-03-17T10:53:55.343Z,61.90
2018-03-17T10:54:57.811Z,61.90
2018-03-17T10:56:00.338Z,61.80
2018-03-17T10:57:02.818Z,61.90
2018-03-17T10:58:05.306Z,58.70
2018-03-17T10:59:07.791Z,57.50
2018-03-17T11:00:10.299Z,58.40
2018-03-17T11:01:18.541Z,58.40
2018-03-17T11:02:21.033Z,58.90
2018-03-17T11:03:24.614Z,57.60
2018-03-17T11:04:27.096Z,57.60
2018-03-17T11:05:30.330Z,57.90
2018-03-17T11:06:32.816Z,57.90
2018-03-17T11:07:36.238Z,58.60
2018-03-17T11:08:38.990Z,58.10
2018-03-17T11:09:42.242Z,59.80
2018-03-17T11:10:45.761Z,59.80
2018-03-17T11:11:49.003Z,59.70
2018-03-17T11:12:51.524Z,59.70
2018-03-17T11:13:54.034Z,60.70
2018-03-17T11:14:56.515Z,58.90
2018-03-17T11:15:59.014Z,58.90
2018-03-17T11:17:02.255Z,59.40
2018-03-17T11:18:04.726Z,59.40
2018-03-17T11:19:07.234Z,59.90
2018-03-17T11:20:09.719Z,60.40
2018-03-17T11:21:12.204Z,60.50
2018-03-17T11:22:14.671Z,59.50
2018-03-17T11:23:17.170Z,58.70
2018-03-17T11:24:19.659Z,59.00
2018-03-17T11:25:27.881Z,59.10
2018-03-17T11:26:31.198Z,61.20
2018-03-17T11:27:33.678Z,61.20
2018-03-17T11:28:36.974Z,60.80
2018-03-17T11:29:40.231Z,60.90
2018-03-17T11:30:42.713Z,60.80
2018-03-17T11:31:45.966Z,59.30
2018-03-17T11:32:48.476Z,59.30
2018-03-17T11:33:51.778Z,59.10
2018-03-17T11:34:54.227Z,59.10
2018-03-17T11:35:57.462Z,57.50
2018-03-17T11:36:59.950Z,57.50
2018-03-17T11:38:02.436Z,56.50
2018-03-17T11:39:05.675Z,56.60
2018-03-17T11:40:08.171Z,56.50
2018-03-17T11:41:11.425Z,55.60
2018-03-17T11:42:13.898Z,55.50
2018-03-17T11:43:16.370Z,53.40
2018-03-17T11:44:18.848Z,53.30
2018-03-17T11:45:22.123Z,54.40
2018-03-17T11:46:24.599Z,54.40
2018-03-17T11:47:27.842Z,54.00
2018-03-17T11:48:30.314Z,54.00
2018-03-17T11:49:32.802Z,54.90
2018-03-17T11:50:35.298Z,54.50
2018-03-17T11:51:37.762Z,53.90
2018-03-17T11:52:40.235Z,54.40
2018-03-17T11:53:42.708Z,54.80
2018-03-17T11:54:45.342Z,54.90
2018-03-17T11:55:47.859Z,55.00
2018-03-17T11:56:50.335Z,54.80
2018-03-17T11:57:52.806Z,55.50
2018-03-17T11:58:55.292Z,55.90
2018-03-17T11:59:57.795Z,55.10
2018-03-17T12:01:00.319Z,55.30
2018-03-17T12:02:03.567Z,55.60
2018-03-17T12:03:06.044Z,55.50
2018-03-17T12:04:08.528Z,55.60
2018-03-17T12:05:11.040Z,55.10
2018-03-17T12:06:13.547Z,55.10
2018-03-17T12:07:16.036Z,55.30
2018-03-17T12:08:19.282Z,55.00
2018-03-17T12:09:21.760Z,55.00
2018-03-17T12:10:24.232Z,54.90
2018-03-17T12:11:26.722Z,54.60
2018-03-17T12:12:29.974Z,52.50
2018-03-17T12:13:32.453Z,52.40
2018-03-17T12:14:35.693Z,51.50
2018-03-17T12:15:38.176Z,51.50
2018-03-17T12:16:40.672Z,51.40
2018-03-17T12:17:43.912Z,51.70
2018-03-17T12:18:46.416Z,51.60
2018-03-17T12:19:49.645Z,53.00
2018-03-17T12:20:52.127Z,53.00
2018-03-17T12:21:54.633Z,53.70
2018-03-17T12:22:57.877Z,53.90
2018-03-17T12:24:00.369Z,53.90
2018-03-17T12:25:02.843Z,52.70
2018-03-17T12:26:05.328Z,51.90
2018-03-17T12:27:07.902Z,52.00
2018-03-17T12:28:10.384Z,51.70
2018-03-17T12:29:12.879Z,52.50
2018-03-17T12:30:15.381Z,52.50
2018-03-17T12:31:17.862Z,53.30
2018-03-17T12:32:20.359Z,52.60
2018-03-17T12:33:22.861Z,52.80
2018-03-17T12:34:26.111Z,51.80
2018-03-17T12:35:28.621Z,51.80
2018-03-17T12:36:31.095Z,52.00
2018-03-17T12:37:33.574Z,51.80
2018-03-17T12:38:36.117Z,51.80
2018-03-17T12:39:38.585Z,51.80
2018-03-17T12:40:41.072Z,51.80
2018-03-17T12:41:43.555Z,52.30
2018-03-17T12:42:46.050Z,52.60
2018-03-17T12:43:48.533Z,53.10
2018-03-17T12:44:51.800Z,53.20
2018-03-17T12:45:54.307Z,53.20
2018-03-17T12:46:57.808Z,53.60
2018-03-17T12:48:00.306Z,52.70
2018-03-17T12:49:02.838Z,53.40
2018-03-17T12:50:05.312Z,53.30
2018-03-17T12:51:07.791Z,52.60
2018-03-17T12:52:10.322Z,52.70
2018-03-17T12:53:12.815Z,52.90
2018-03-17T12:54:15.289Z,52.00
2018-03-17T12:55:17.762Z,51.40
2018-03-17T12:56:20.243Z,51.10
2018-03-17T12:57:23.494Z,52.50
2018-03-17T12:58:25.983Z,52.50
2018-03-17T12:59:28.599Z,53.40
2018-03-17T13:00:31.091Z,53.10
2018-03-17T13:01:33.575Z,52.70
2018-03-17T13:02:36.066Z,51.50
2018-03-17T13:03:39.323Z,51.50
2018-03-17T13:04:41.812Z,51.00
2018-03-17T13:05:45.047Z,51.30
2018-03-17T13:06:47.560Z,51.30
2018-03-17T13:07:50.798Z,51.20
2018-03-17T13:08:53.311Z,51.20
2018-03-17T13:09:55.790Z,51.50
2018-03-17T13:10:58.275Z,51.30
2018-03-17T13:12:00.775Z,51.30
2018-03-17T13:13:03.250Z,51.60
2018-03-17T13:14:05.735Z,51.60
2018-03-17T13:15:08.240Z,51.70
2018-03-17T13:16:11.439Z,51.60
2018-03-17T13:17:13.956Z,51.30
2018-03-17T13:18:16.456Z,51.00
2018-03-17T13:19:30.791Z,51.00
2018-03-17T13:20:33.263Z,50.60
2018-03-17T13:21:35.836Z,51.20
2018-03-17T13:22:50.406Z,51.20
2018-03-17T13:23:53.706Z,49.10
2018-03-17T13:24:57.834Z,49.10
2018-03-17T13:26:00.303Z,49.00
2018-03-17T13:27:14.627Z,49.40
2018-03-17T13:28:29.247Z,50.50